Time;durP1;ratioP1;P1;durP2;ratioP2;P2;SDS_P1;SDS_P2;PMS_P1;PMS_P2;Temp;Humidity;BMP_temperature;BMP_pressure;BME280_temperature;BME280_humidity;BME280_pressure;Samples;Min_cycle;Max_cycle;Signal;HPM_P1;HPM_P2
2023/09/10 00:02:13;;;;;;;;;;;;;;;;;;5095710;28;19908;-89
2023/09/10 00:04:38;;;;;;;;;;;;;;;;;;5097788;28;19912;-87
2023/09/10 00:07:04;;;;;;;;;;;;;;;;;;5095220;28;20340;-89
2023/09/10 00:09:29;;;;;;;;;;;;;;;;;;5097276;28;19919;-89
2023/09/10 00:11:54;;;;;;;;;;;;;;;;;;5104821;28;19914;-88
2023/09/10 00:14:20;;;;;;;;;;;;;;;;;;5110997;27;19916;-88
2023/09/10 00:16:45;;;;;;;;;;;;;;;;;;5094945;28;20290;-87
2023/09/10 00:19:15;;;;;;;;;;;;;;;;;;5097469;28;19919;-88
2023/09/10 00:21:40;;;;;;;;;;;;;;;;;;5107587;28;19981;-88
2023/09/10 00:24:06;;;;;;;;;;;;;;;;;;5097288;28;19912;-90
2023/09/10 00:26:31;;;;;;;;;;;;;;;;;;5078378;28;20014;-88
2023/09/10 00:28:57;;;;;;;;;;;;;;;;;;5095453;28;20030;-88
2023/09/10 00:31:22;;;;;;;;;;;;;;;;;;5090789;28;19907;-88
2023/09/10 00:33:47;;;;;;;;;;;;;;;;;;5111753;28;19923;-88
2023/09/10 00:36:13;;;;;;;;;;;;;;;;;;5095299;28;20328;-91
2023/09/10 00:38:38;;;;;;;;;;;;;;;;;;5097164;28;19967;-89
2023/09/10 00:41:07;;;;;;;;;;;;;;;;;;5105607;28;19916;-88
2023/09/10 00:43:33;;;;;;;;;;;;;;;;;;5077710;28;19921;-89
2023/09/10 00:45:58;;;;;;;;;;;;;;;;;;5105118;28;20296;-88
2023/09/10 00:48:23;;;;;;;;;;;;;;;;;;5073768;28;19919;-88
2023/09/10 00:50:49;;;;;;;;;;;;;;;;;;5092440;28;19915;-88
2023/09/10 00:53:14;;;;;;;;;;;;;;;;;;5095103;28;19990;-88
2023/09/10 00:55:39;;;;;;;;;;;;;;;;;;5095461;28;19907;-87
2023/09/10 00:58:05;;;;;;;;;;;;;;;;;;5078702;28;20370;-87
2023/09/10 01:00:30;;;;;;;;;;;;;;;;;;5093411;28;20052;-89
2023/09/10 01:02:58;;;;;;;;;;;;;;;;;;5094344;28;19912;-89
2023/09/10 01:05:24;;;;;;;;;;;;;;;;;;5093689;28;19997;-89
2023/09/10 01:07:50;;;;;;;;;;;;;;;;;;5104391;28;20298;-88
2023/09/10 01:10:15;;;;;;;;;;;;;;;;;;5098101;28;19965;-89
2023/09/10 01:12:41;;;;;;;;;;;;;;;;;;5095708;28;19912;-88
2023/09/10 01:15:06;;;;;;;;;;;;;;;;;;5110929;28;19946;-89
2023/09/10 01:17:32;;;;;;;;;;;;;;;;;;5096734;28;19956;-90
2023/09/10 01:19:57;;;;;;;;;;;;;;;;;;5077407;28;19919;-89
2023/09/10 01:22:22;;;;;;;;;;;;;;;;;;5098898;28;20011;-88
2023/09/10 01:24:48;;;;;;;;;;;;;;;;;;5099493;28;19916;-88
2023/09/10 01:27:14;;;;;;;;;;;;;;;;;;5095863;28;19973;-89
2023/09/10 01:29:40;;;;;;;;;;;;;;;;;;5109957;28;19907;-89
2023/09/10 01:32:05;;;;;;;;;;;;;;;;;;5110016;28;19935;-88
2023/09/10 01:34:31;;;;;;;;;;;;;;;;;;5092145;28;20328;-88
2023/09/10 01:36:56;;;;;;;;;;;;;;;;;;5094570;28;19965;-87
2023/09/10 01:39:21;;;;;;;;;;;;;;;;;;5107510;28;19912;-88
2023/09/10 01:41:47;;;;;;;;;;;;;;;;;;5093317;28;19912;-89
2023/09/10 01:44:12;;;;;;;;;;;;;;;;;;5096321;28;19900;-87
2023/09/10 01:46:38;;;;;;;;;;;;;;;;;;5083672;28;19916;-88
2023/09/10 01:51:54;;;;;;;;;;;;;;;;;;5088618;28;19919;-88
2023/09/10 01:54:19;;;;;;;;;;;;;;;;;;5093879;28;19912;-89
2023/09/10 01:56:45;;;;;;;;;;;;;;;;;;5095251;28;19911;-86
2023/09/10 01:59:10;;;;;;;;;;;;;;;;;;5066282;28;19912;-87
2023/09/10 02:01:35;;;;;;;;;;;;;;;;;;5076306;28;19912;-86
2023/09/10 02:04:19;;;;;;;;;;;;;;;;;;5095038;28;20385;-89
2023/09/10 02:06:45;;;;;;;;;;;;;;;;;;5109303;28;19916;-90
2023/09/10 02:09:10;;;;;;;;;;;;;;;;;;5106765;27;20434;-88
2023/09/10 02:11:35;;;;;;;;;;;;;;;;;;5098329;28;20283;-89
2023/09/10 02:14:01;;;;;;;;;;;;;;;;;;5107567;28;19912;-88
2023/09/10 02:16:26;;;;;;;;;;;;;;;;;;5093244;28;19912;-87
2023/09/10 02:18:51;;;;;;;;;;;;;;;;;;5078047;28;19908;-89
2023/09/10 02:21:17;;;;;;;;;;;;;;;;;;5111404;28;19920;-89
2023/09/10 02:23:43;;;;;;;;;;;;;;;;;;5075757;28;20060;-89
2023/09/10 02:26:08;;;;;;;;;;;;;;;;;;5092981;28;19924;-89
2023/09/10 02:28:33;;;;;;;;;;;;;;;;;;5078365;28;19919;-90
2023/09/10 02:30:59;;;;;;;;;;;;;;;;;;5098028;28;19955;-89
2023/09/10 02:33:24;;;;;;;;;;;;;;;;;;5093988;28;19912;-89
2023/09/10 02:35:50;;;;;;;;;;;;;;;;;;5092323;28;19919;-89
2023/09/10 02:38:15;;;;;;;;;;;;;;;;;;5092778;28;19912;-87
2023/09/10 02:40:40;;;;;;;;;;;;;;;;;;5109266;28;20328;-89
2023/09/10 02:43:06;;;;;;;;;;;;;;;;;;5110283;28;19912;-87
2023/09/10 02:45:31;;;;;;;;;;;;;;;;;;5109026;28;19923;-87
2023/09/10 02:47:57;;;;;;;;;;;;;;;;;;5098796;28;20053;-88
2023/09/10 02:50:23;;;;;;;;;;;;;;;;;;5087806;28;20358;-88
2023/09/10 02:52:48;;;;;;;;;;;;;;;;;;5092268;28;20519;-88
2023/09/10 02:55:16;;;;;;;;;;;;;;;;;;5091856;28;19919;-88
2023/09/10 02:57:42;;;;;;;;;;;;;;;;;;5098469;28;19930;-88
2023/09/10 03:00:07;;;;;;;;;;;;;;;;;;5109881;28;19920;-89
2023/09/10 03:02:32;;;;;;;;;;;;;;;;;;5104586;28;19908;-89
2023/09/10 03:04:58;;;;;;;;;;;;;;;;;;5092813;28;19965;-88
2023/09/10 03:07:23;;;;;;;;;;;;;;;;;;5101141;28;19909;-88
2023/09/10 03:09:49;;;;;;;;;;;;;;;;;;5094231;28;20034;-87
2023/09/10 03:12:14;;;;;;;;;;;;;;;;;;5113717;28;19908;-88
2023/09/10 03:14:39;;;;;;;;;;;;;;;;;;5077972;28;19912;-88
2023/09/10 03:17:04;;;;;;;;;;;;;;;;;;5077838;28;19951;-89
2023/09/10 03:19:30;;;;;;;;;;;;;;;;;;5079144;28;19916;-88
2023/09/10 03:21:55;;;;;;;;;;;;;;;;;;5097894;28;19912;-88
2023/09/10 03:24:20;;;;;;;;;;;;;;;;;;5097210;28;19957;-88
2023/09/10 03:26:46;;;;;;;;;;;;;;;;;;5115355;28;19919;-87
2023/09/10 03:29:11;;;;;;;;;;;;;;;;;;5101202;28;19911;-88
2023/09/10 03:31:36;;;;;;;;;;;;;;;;;;5115185;28;20354;-87
2023/09/10 03:34:02;;;;;;;;;;;;;;;;;;5100668;28;20002;-87
2023/09/10 03:36:28;;;;;;;;;;;;;;;;;;5078759;28;19912;-89
2023/09/10 03:38:53;;;;;;;;;;;;;;;;;;5111992;28;19912;-88
2023/09/10 03:41:18;;;;;;;;;;;;;;;;;;5107635;28;19912;-88
2023/09/10 03:43:44;;;;;;;;;;;;;;;;;;5088667;28;19912;-88
2023/09/10 03:46:09;;;;;;;;;;;;;;;;;;5078925;28;19907;-87
2023/09/10 03:48:35;;;;;;;;;;;;;;;;;;5096599;28;19919;-87
2023/09/10 03:51:00;;;;;;;;;;;;;;;;;;5079195;28;19914;-88
2023/09/10 03:53:25;;;;;;;;;;;;;;;;;;5096079;28;20412;-87
2023/09/10 03:55:51;;;;;;;;;;;;;;;;;;5093984;28;20351;-88
2023/09/10 03:58:16;;;;;;;;;;;;;;;;;;5106218;28;19934;-89
2023/09/10 04:00:41;;;;;;;;;;;;;;;;;;5100931;28;19919;-88
2023/09/10 04:03:08;;;;;;;;;;;;;;;;;;5096101;28;20015;-88
2023/09/10 04:05:33;;;;;;;;;;;;;;;;;;5095625;28;20325;-89
2023/09/10 04:07:58;;;;;;;;;;;;;;;;;;5096063;28;19918;-89
2023/09/10 04:10:26;;;;;;;;;;;;;;;;;;5099951;28;19915;-88
2023/09/10 04:12:51;;;;;;;;;;;;;;;;;;5102619;28;19912;-89
2023/09/10 04:15:17;;;;;;;;;;;;;;;;;;5099969;28;19915;-89
2023/09/10 04:17:42;;;;;;;;;;;;;;;;;;5094429;28;19912;-89
2023/09/10 04:20:09;;;;;;;;;;;;;;;;;;5095866;28;19923;-89
2023/09/10 04:22:35;;;;;;;;;;;;;;;;;;5094899;28;19922;-88
2023/09/10 04:25:00;;;;;;;;;;;;;;;;;;5079078;28;20355;-88
2023/09/10 04:27:25;;;;;;;;;;;;;;;;;;5088461;28;19920;-89
2023/09/10 04:29:52;;;;;;;;;;;;;;;;;;5079359;28;20016;-89
2023/09/10 04:32:18;;;;;;;;;;;;;;;;;;5095515;28;20465;-88
2023/09/10 04:34:43;;;;;;;;;;;;;;;;;;5121795;27;19944;-89
2023/09/10 04:37:09;;;;;;;;;;;;;;;;;;5087091;28;19994;-87
2023/09/10 04:39:34;;;;;;;;;;;;;;;;;;5101742;28;19915;-89
2023/09/10 04:42:01;;;;;;;;;;;;;;;;;;5101801;28;19912;-89
2023/09/10 04:44:26;;;;;;;;;;;;;;;;;;5093831;28;19915;-89
2023/09/10 04:46:54;;;;;;;;;;;;;;;;;;5094710;28;19911;-88
2023/09/10 04:49:20;;;;;;;;;;;;;;;;;;5108976;27;19912;-87
2023/09/10 04:51:45;;;;;;;;;;;;;;;;;;5117429;27;19919;-89
2023/09/10 04:54:10;;;;;;;;;;;;;;;;;;5077488;28;19908;-89
2023/09/10 04:56:36;;;;;;;;;;;;;;;;;;5077778;28;19918;-89
2023/09/10 04:59:01;;;;;;;;;;;;;;;;;;5094435;28;19908;-89
2023/09/10 05:01:27;;;;;;;;;;;;;;;;;;5095669;28;19916;-89
2023/09/10 05:03:52;;;;;;;;;;;;;;;;;;5092558;28;19934;-89
2023/09/10 05:06:19;;;;;;;;;;;;;;;;;;5096458;28;20348;-89
2023/09/10 05:08:44;;;;;;;;;;;;;;;;;;5074371;28;19915;-89
2023/09/10 05:11:10;;;;;;;;;;;;;;;;;;5102624;28;20330;-89
2023/09/10 05:13:36;;;;;;;;;;;;;;;;;;5101395;28;19912;-89
2023/09/10 05:16:01;;;;;;;;;;;;;;;;;;5094642;28;19954;-88
2023/09/10 05:18:27;;;;;;;;;;;;;;;;;;5109638;28;19908;-88
2023/09/10 05:20:53;;;;;;;;;;;;;;;;;;5098525;28;20370;-89
2023/09/10 05:23:18;;;;;;;;;;;;;;;;;;5078060;28;20007;-90
2023/09/10 05:25:44;;;;;;;;;;;;;;;;;;5096578;28;19920;-90
2023/09/10 05:28:09;;;;;;;;;;;;;;;;;;5074249;28;19919;-89
2023/09/10 05:30:35;;;;;;;;;;;;;;;;;;5105572;28;19965;-88
2023/09/10 05:33:00;;;;;;;;;;;;;;;;;;5091775;28;20002;-89
2023/09/10 05:35:26;;;;;;;;;;;;;;;;;;5117752;27;20002;-89
2023/09/10 05:37:51;;;;;;;;;;;;;;;;;;5072619;28;19919;-89
2023/09/10 05:40:16;;;;;;;;;;;;;;;;;;5110907;28;19923;-90
2023/09/10 05:42:42;;;;;;;;;;;;;;;;;;5076815;28;20716;-89
2023/09/10 05:45:07;;;;;;;;;;;;;;;;;;5105488;28;19916;-89
2023/09/10 05:47:32;;;;;;;;;;;;;;;;;;5093149;28;19908;-90
2023/09/10 05:49:58;;;;;;;;;;;;;;;;;;5105803;27;19916;-89
2023/09/10 05:52:23;;;;;;;;;;;;;;;;;;5093722;28;19990;-90
2023/09/10 05:54:49;;;;;;;;;;;;;;;;;;5077806;28;20616;-90
2023/09/10 05:57:14;;;;;;;;;;;;;;;;;;5110387;28;19908;-90
2023/09/10 05:59:39;;;;;;;;;;;;;;;;;;5099698;28;20022;-91
2023/09/10 06:02:05;;;;;;;;;;;;;;;;;;5109861;28;19908;-88
2023/09/10 06:04:32;;;;;;;;;;;;;;;;;;5094870;28;19912;-89
2023/09/10 06:06:57;;;;;;;;;;;;;;;;;;5076169;28;19907;-89
2023/09/10 06:09:24;;;;;;;;;;;;;;;;;;5093542;28;19987;-89
2023/09/10 06:11:49;;;;;;;;;;;;;;;;;;5076491;28;20328;-89
2023/09/10 06:14:15;;;;;;;;;;;;;;;;;;5093044;28;19912;-90
2023/09/10 06:16:40;;;;;;;;;;;;;;;;;;5088028;28;19907;-89
2023/09/10 06:19:05;;;;;;;;;;;;;;;;;;5117373;28;20289;-86
2023/09/10 06:21:35;;;;;;;;;;;;;;;;;;5105418;28;19923;-89
2023/09/10 06:24:02;;;;;;;;;;;;;;;;;;5077044;28;19995;-90
2023/09/10 06:26:28;;;;;;;;;;;;;;;;;;5077180;28;19923;-89
2023/09/10 06:28:53;;;;;;;;;;;;;;;;;;5076846;28;19919;-89
2023/09/10 06:31:18;;;;;;;;;;;;;;;;;;5093898;28;19908;-88
2023/09/10 06:33:44;;;;;;;;;;;;;;;;;;5074200;28;19919;-88
2023/09/10 06:36:09;;;;;;;;;;;;;;;;;;5073499;28;20363;-89
2023/09/10 06:38:35;;;;;;;;;;;;;;;;;;5093295;28;20041;-89
2023/09/10 06:41:03;;;;;;;;;;;;;;;;;;5075779;28;19912;-89
2023/09/10 06:43:28;;;;;;;;;;;;;;;;;;5098579;28;19943;-89
2023/09/10 06:46:07;;;;;;;;;;;;;;;;;;5091158;28;20335;-88
2023/09/10 06:48:33;;;;;;;;;;;;;;;;;;5094173;28;19960;-89
2023/09/10 06:51:00;;;;;;;;;;;;;;;;;;5097503;28;19908;-89
2023/09/10 06:53:26;;;;;;;;;;;;;;;;;;5097439;28;19956;-89
2023/09/10 06:55:51;;;;;;;;;;;;;;;;;;5096707;28;19912;-87
2023/09/10 06:58:17;;;;;;;;;;;;;;;;;;5097963;28;19941;-89
2023/09/10 07:00:42;;;;;;;;;;;;;;;;;;5090870;28;20005;-90
2023/09/10 07:03:08;;;;;;;;;;;;;;;;;;5085001;28;19916;-90
2023/09/10 07:05:33;;;;;;;;;;;;;;;;;;5087411;28;20385;-90
2023/09/10 07:07:59;;;;;;;;;;;;;;;;;;5080732;28;19912;-90
2023/09/10 07:10:24;;;;;;;;;;;;;;;;;;5111604;28;20660;-90
2023/09/10 07:12:50;;;;;;;;;;;;;;;;;;5097396;28;19912;-90
2023/09/10 07:15:15;;;;;;;;;;;;;;;;;;5093863;28;19908;-89
2023/09/10 07:17:40;;;;;;;;;;;;;;;;;;5098764;28;19955;-88
2023/09/10 07:20:06;;;;;;;;;;;;;;;;;;5096623;28;19912;-90
2023/09/10 07:22:31;;;;;;;;;;;;;;;;;;5095243;28;19954;-88
2023/09/10 07:24:56;;;;;;;;;;;;;;;;;;5123463;27;19908;-89
2023/09/10 07:27:22;;;;;;;;;;;;;;;;;;5104104;28;19920;-89
2023/09/10 07:29:47;;;;;;;;;;;;;;;;;;5105173;27;20401;-89
2023/09/10 07:32:12;;;;;;;;;;;;;;;;;;5096274;28;19934;-88
2023/09/10 07:34:38;;;;;;;;;;;;;;;;;;5111947;28;19912;-88
2023/09/10 07:37:03;;;;;;;;;;;;;;;;;;5089034;28;19916;-89
2023/09/10 07:39:30;;;;;;;;;;;;;;;;;;5078083;28;19954;-89
2023/09/10 07:41:56;;;;;;;;;;;;;;;;;;5097849;28;19912;-90
2023/09/10 07:44:21;;;;;;;;;;;;;;;;;;5097771;28;19912;-90
2023/09/10 07:46:47;;;;;;;;;;;;;;;;;;5096556;28;19919;-89
2023/09/10 07:49:12;;;;;;;;;;;;;;;;;;5083199;28;19916;-86
2023/09/10 07:51:37;;;;;;;;;;;;;;;;;;5097651;28;20417;-88
2023/09/10 07:54:03;;;;;;;;;;;;;;;;;;5112124;28;20397;-89
2023/09/10 07:56:28;;;;;;;;;;;;;;;;;;5100656;28;19916;-87
2023/09/10 07:58:54;;;;;;;;;;;;;;;;;;5072544;28;19908;-88
2023/09/10 08:01:19;;;;;;;;;;;;;;;;;;5089117;28;19916;-82
2023/09/10 08:03:44;;;;;;;;;;;;;;;;;;5095866;28;19908;-80
2023/09/10 08:06:10;;;;;;;;;;;;;;;;;;5095911;28;20350;-78
2023/09/10 08:08:35;;;;;;;;;;;;;;;;;;5098106;28;19911;-78
2023/09/10 08:11:01;;;;;;;;;;;;;;;;;;5090058;28;20386;-80
2023/09/10 08:13:26;;;;;;;;;;;;;;;;;;5079787;28;20324;-80
2023/09/10 08:15:52;;;;;;;;;;;;;;;;;;5093640;28;19918;-80
2023/09/10 08:18:17;;;;;;;;;;;;;;;;;;5096003;28;19912;-82
2023/09/10 08:20:42;;;;;;;;;;;;;;;;;;5113309;28;19916;-82
2023/09/10 08:23:08;;;;;;;;;;;;;;;;;;5095014;28;19947;-82
2023/09/10 08:25:33;;;;;;;;;;;;;;;;;;5094303;28;19912;-82
2023/09/10 08:27:59;;;;;;;;;;;;;;;;;;5092662;28;19916;-82
2023/09/10 08:30:24;;;;;;;;;;;;;;;;;;5108888;28;19912;-80
2023/09/10 08:32:50;;;;;;;;;;;;;;;;;;5094788;28;20393;-79
2023/09/10 08:35:15;;;;;;;;;;;;;;;;;;5094830;28;19927;-80
2023/09/10 08:37:40;;;;;;;;;;;;;;;;;;5096807;28;19915;-80
2023/09/10 08:40:08;;;;;;;;;;;;;;;;;;5093477;28;19923;-80
2023/09/10 08:42:33;;;;;;;;;;;;;;;;;;5087584;28;19985;-81
2023/09/10 08:44:58;;;;;;;;;;;;;;;;;;5109501;28;20379;-80
2023/09/10 08:47:24;;;;;;;;;;;;;;;;;;5093739;28;19943;-81
2023/09/10 08:49:49;;;;;;;;;;;;;;;;;;5092983;28;19934;-81
2023/09/10 08:52:14;;;;;;;;;;;;;;;;;;5093407;28;19953;-81
2023/09/10 08:54:40;;;;;;;;;;;;;;;;;;5094500;28;19962;-82
2023/09/10 08:57:05;;;;;;;;;;;;;;;;;;5093738;28;19957;-82
2023/09/10 08:59:30;;;;;;;;;;;;;;;;;;5094658;28;19912;-80
2023/09/10 09:01:56;;;;;;;;;;;;;;;;;;5095450;28;19908;-80
2023/09/10 09:04:21;;;;;;;;;;;;;;;;;;5095451;28;19912;-81
2023/09/10 09:06:46;;;;;;;;;;;;;;;;;;5105959;28;19912;-81
2023/09/10 09:09:12;;;;;;;;;;;;;;;;;;5093337;28;19965;-80
2023/09/10 09:11:37;;;;;;;;;;;;;;;;;;5093569;28;19972;-80
2023/09/10 09:14:07;;;;;;;;;;;;;;;;;;5094382;28;20010;-80
2023/09/10 09:16:32;;;;;;;;;;;;;;;;;;5092929;28;19907;-80
2023/09/10 09:18:58;;;;;;;;;;;;;;;;;;5104769;27;19923;-80
2023/09/10 09:21:23;;;;;;;;;;;;;;;;;;5095232;28;19920;-80
2023/09/10 09:23:48;;;;;;;;;;;;;;;;;;5084820;28;19911;-79
2023/09/10 09:26:17;;;;;;;;;;;;;;;;;;5092620;28;19965;-79
2023/09/10 09:28:42;;;;;;;;;;;;;;;;;;5092338;28;19912;-79
2023/09/10 09:31:08;;;;;;;;;;;;;;;;;;5093260;28;20282;-80
2023/09/10 09:33:34;;;;;;;;;;;;;;;;;;5100339;28;19912;-80
2023/09/10 09:35:59;;;;;;;;;;;;;;;;;;5094611;28;19915;-80
2023/09/10 09:38:25;;;;;;;;;;;;;;;;;;5090889;28;19916;-81
2023/09/10 09:40:50;;;;;;;;;;;;;;;;;;5093258;28;19937;-79
2023/09/10 09:43:15;;;;;;;;;;;;;;;;;;5091373;28;19919;-79
2023/09/10 09:45:41;;;;;;;;;;;;;;;;;;5092470;28;19951;-79
2023/09/10 09:48:06;;;;;;;;;;;;;;;;;;5092633;28;19912;-80
2023/09/10 09:50:32;;;;;;;;;;;;;;;;;;5092640;28;19912;-80
2023/09/10 09:52:57;;;;;;;;;;;;;;;;;;5091994;28;19989;-80
2023/09/10 09:55:22;;;;;;;;;;;;;;;;;;5092332;28;19916;-80
2023/09/10 09:57:47;;;;;;;;;;;;;;;;;;5092773;28;19918;-79
2023/09/10 10:00:13;;;;;;;;;;;;;;;;;;5092103;28;19920;-80
2023/09/10 10:02:38;;;;;;;;;;;;;;;;;;5092629;28;20260;-79
2023/09/10 10:05:04;;;;;;;;;;;;;;;;;;5092077;28;20048;-81
2023/09/10 10:07:29;;;;;;;;;;;;;;;;;;5091340;28;19907;-79
2023/09/10 10:09:54;;;;;;;;;;;;;;;;;;5093018;28;20379;-79
2023/09/10 10:12:20;;;;;;;;;;;;;;;;;;5092942;28;19973;-80
2023/09/10 10:14:45;;;;;;;;;;;;;;;;;;5089167;28;20439;-78
2023/09/10 10:17:10;;;;;;;;;;;;;;;;;;5083322;28;19913;-77
2023/09/10 10:19:36;;;;;;;;;;;;;;;;;;5078736;28;19959;-79
2023/09/10 10:22:04;;;;;;;;;;;;;;;;;;5091905;28;20395;-80
2023/09/10 10:24:29;;;;;;;;;;;;;;;;;;5089999;28;20041;-80
2023/09/10 10:26:55;;;;;;;;;;;;;;;;;;5106552;28;19924;-79
2023/09/10 10:29:20;;;;;;;;;;;;;;;;;;5089874;28;19919;-80
2023/09/10 10:31:48;;;;;;;;;;;;;;;;;;5077410;28;19908;-80
2023/09/10 10:34:14;;;;;;;;;;;;;;;;;;5094426;28;19999;-79
2023/09/10 10:36:39;;;;;;;;;;;;;;;;;;5090426;28;20019;-79
2023/09/10 10:39:04;;;;;;;;;;;;;;;;;;5086603;28;19911;-80
2023/09/10 10:41:30;;;;;;;;;;;;;;;;;;5092717;28;19974;-79
2023/09/10 10:43:55;;;;;;;;;;;;;;;;;;5091686;28;19956;-78
2023/09/10 10:46:20;;;;;;;;;;;;;;;;;;5093305;28;19908;-79
2023/09/10 10:48:46;;;;;;;;;;;;;;;;;;5090850;28;19935;-79
2023/09/10 10:51:11;;;;;;;;;;;;;;;;;;5092556;28;19915;-80
2023/09/10 10:53:36;;;;;;;;;;;;;;;;;;5089050;28;19912;-80
2023/09/10 10:56:03;;;;;;;;;;;;;;;;;;5090827;28;20002;-80
2023/09/10 10:58:29;;;;;;;;;;;;;;;;;;5090468;28;20299;-80
2023/09/10 11:00:54;;;;;;;;;;;;;;;;;;5086875;28;19918;-80
2023/09/10 11:03:20;;;;;;;;;;;;;;;;;;5093659;28;19919;-80
2023/09/10 11:05:46;;;;;;;;;;;;;;;;;;5094149;28;19931;-80
2023/09/10 11:08:11;;;;;;;;;;;;;;;;;;5091217;28;19919;-80
2023/09/10 11:10:36;;;;;;;;;;;;;;;;;;5088645;28;20299;-80
2023/09/10 11:13:02;;;;;;;;;;;;;;;;;;5096031;28;19950;-78
2023/09/10 11:15:27;;;;;;;;;;;;;;;;;;5095812;28;19955;-79
2023/09/10 11:17:52;;;;;;;;;;;;;;;;;;5096349;28;19964;-80
2023/09/10 11:20:18;;;;;;;;;;;;;;;;;;5097863;28;19915;-80
2023/09/10 11:22:43;;;;;;;;;;;;;;;;;;5094456;28;19923;-79
2023/09/10 11:25:08;;;;;;;;;;;;;;;;;;5095581;28;19908;-80
2023/09/10 11:27:34;;;;;;;;;;;;;;;;;;5095441;28;20367;-80
2023/09/10 11:29:59;;;;;;;;;;;;;;;;;;5097359;28;19915;-79
2023/09/10 11:32:24;;;;;;;;;;;;;;;;;;5089939;28;20002;-80
2023/09/10 11:34:50;;;;;;;;;;;;;;;;;;5094622;28;19908;-80
2023/09/10 11:37:15;;;;;;;;;;;;;;;;;;5098297;28;20006;-79
2023/09/10 11:39:41;;;;;;;;;;;;;;;;;;5098409;28;20038;-79
2023/09/10 11:42:08;;;;;;;;;;;;;;;;;;5098658;28;20359;-79
2023/09/10 11:44:33;;;;;;;;;;;;;;;;;;5081715;28;19912;-79
2023/09/10 11:46:59;;;;;;;;;;;;;;;;;;5098253;28;19931;-80
2023/09/10 11:49:24;;;;;;;;;;;;;;;;;;5102836;28;20362;-78
2023/09/10 11:51:50;;;;;;;;;;;;;;;;;;5097801;28;19912;-79
2023/09/10 11:54:18;;;;;;;;;;;;;;;;;;5097491;28;19936;-80
2023/09/10 11:56:43;;;;;;;;;;;;;;;;;;5095948;28;19912;-80
2023/09/10 11:59:09;;;;;;;;;;;;;;;;;;5097464;28;20022;-80
2023/09/10 12:01:34;;;;;;;;;;;;;;;;;;5098053;28;19912;-80
2023/09/10 12:03:59;;;;;;;;;;;;;;;;;;5096910;28;19908;-80
2023/09/10 12:06:25;;;;;;;;;;;;;;;;;;5096372;28;19912;-80
2023/09/10 12:08:50;;;;;;;;;;;;;;;;;;5097625;28;19907;-80
2023/09/10 12:11:15;;;;;;;;;;;;;;;;;;5097399;28;19937;-79
2023/09/10 12:13:41;;;;;;;;;;;;;;;;;;5097436;28;19931;-80
2023/09/10 12:16:06;;;;;;;;;;;;;;;;;;5097995;28;20028;-80
2023/09/10 12:18:31;;;;;;;;;;;;;;;;;;5088981;28;19989;-79
2023/09/10 12:20:57;;;;;;;;;;;;;;;;;;5097252;28;19961;-79
2023/09/10 12:23:22;;;;;;;;;;;;;;;;;;5116647;27;19912;-79
2023/09/10 12:25:47;;;;;;;;;;;;;;;;;;5094832;28;19922;-79
2023/09/10 12:28:13;;;;;;;;;;;;;;;;;;5094932;28;20297;-80
2023/09/10 12:30:38;;;;;;;;;;;;;;;;;;5096737;28;19916;-80
2023/09/10 12:33:05;;;;;;;;;;;;;;;;;;5097246;28;19908;-79
2023/09/10 12:35:30;;;;;;;;;;;;;;;;;;5099849;28;20378;-79
2023/09/10 12:37:55;;;;;;;;;;;;;;;;;;5095265;28;19908;-80
2023/09/10 12:40:21;;;;;;;;;;;;;;;;;;5095923;28;19992;-79
2023/09/10 12:42:46;;;;;;;;;;;;;;;;;;5095146;28;20049;-78
2023/09/10 12:45:12;;;;;;;;;;;;;;;;;;5097080;28;19912;-80
2023/09/10 12:47:38;;;;;;;;;;;;;;;;;;5098238;28;20217;-79
2023/09/10 12:50:03;;;;;;;;;;;;;;;;;;5096071;28;19924;-80
2023/09/10 12:52:28;;;;;;;;;;;;;;;;;;5096487;28;20393;-80
2023/09/10 12:54:54;;;;;;;;;;;;;;;;;;5107587;28;19911;-80
2023/09/10 12:57:19;;;;;;;;;;;;;;;;;;5092609;28;19950;-79
2023/09/10 12:59:44;;;;;;;;;;;;;;;;;;5096563;28;19999;-79
2023/09/10 13:02:10;;;;;;;;;;;;;;;;;;5076096;28;19915;-79
2023/09/10 13:04:36;;;;;;;;;;;;;;;;;;5098305;28;19919;-80
2023/09/10 13:07:01;;;;;;;;;;;;;;;;;;5097173;28;20959;-79
2023/09/10 13:09:26;;;;;;;;;;;;;;;;;;5096148;28;20044;-79
2023/09/10 13:11:52;;;;;;;;;;;;;;;;;;5096828;28;19918;-79
2023/09/10 13:14:17;;;;;;;;;;;;;;;;;;5091770;28;19916;-79
2023/09/10 13:16:43;;;;;;;;;;;;;;;;;;5093702;28;19945;-78
2023/09/10 13:19:08;;;;;;;;;;;;;;;;;;5096914;28;19912;-80
2023/09/10 13:21:34;;;;;;;;;;;;;;;;;;5096636;28;19920;-79
2023/09/10 13:23:59;;;;;;;;;;;;;;;;;;5094128;28;19923;-80
2023/09/10 13:26:25;;;;;;;;;;;;;;;;;;5097079;28;19919;-79
2023/09/10 13:28:50;;;;;;;;;;;;;;;;;;5091434;28;19912;-79
2023/09/10 13:31:15;;;;;;;;;;;;;;;;;;5108937;27;19919;-79
2023/09/10 13:33:41;;;;;;;;;;;;;;;;;;5094795;28;19912;-79
2023/09/10 13:36:06;;;;;;;;;;;;;;;;;;5097137;28;19911;-79
2023/09/10 13:38:31;;;;;;;;;;;;;;;;;;5097459;28;19912;-79
2023/09/10 13:40:57;;;;;;;;;;;;;;;;;;5097008;28;19915;-79
2023/09/10 13:43:23;;;;;;;;;;;;;;;;;;5095887;28;19922;-78
2023/09/10 13:45:48;;;;;;;;;;;;;;;;;;5091680;28;19955;-78
2023/09/10 13:48:14;;;;;;;;;;;;;;;;;;5093815;28;19968;-79
2023/09/10 13:50:40;;;;;;;;;;;;;;;;;;5094636;28;20298;-79
2023/09/10 13:53:05;;;;;;;;;;;;;;;;;;5098072;28;19912;-80
2023/09/10 13:55:30;;;;;;;;;;;;;;;;;;5096219;28;20374;-79
2023/09/10 13:57:56;;;;;;;;;;;;;;;;;;5102953;28;19912;-79
2023/09/10 14:00:21;;;;;;;;;;;;;;;;;;5096163;28;19908;-79
2023/09/10 14:02:46;;;;;;;;;;;;;;;;;;5089961;28;20318;-79
2023/09/10 14:05:12;;;;;;;;;;;;;;;;;;5092654;28;19908;-79
2023/09/10 14:07:37;;;;;;;;;;;;;;;;;;5099907;28;19916;-79
2023/09/10 14:10:03;;;;;;;;;;;;;;;;;;5091751;28;19916;-79
2023/09/10 14:12:28;;;;;;;;;;;;;;;;;;5094863;28;19916;-79
2023/09/10 14:14:53;;;;;;;;;;;;;;;;;;5086270;28;20364;-79
2023/09/10 14:17:19;;;;;;;;;;;;;;;;;;5096705;28;20001;-79
2023/09/10 14:19:44;;;;;;;;;;;;;;;;;;5095378;28;19916;-79
2023/09/10 14:22:09;;;;;;;;;;;;;;;;;;5094915;28;19916;-80
2023/09/10 14:24:34;;;;;;;;;;;;;;;;;;5094407;28;19958;-79
2023/09/10 14:27:00;;;;;;;;;;;;;;;;;;5094904;28;19927;-79
2023/09/10 14:29:25;;;;;;;;;;;;;;;;;;5092795;28;19908;-79
2023/09/10 14:31:51;;;;;;;;;;;;;;;;;;5095402;28;19962;-79
2023/09/10 14:34:16;;;;;;;;;;;;;;;;;;5086710;28;19909;-79
2023/09/10 14:36:41;;;;;;;;;;;;;;;;;;5099749;28;20007;-79
2023/09/10 14:39:06;;;;;;;;;;;;;;;;;;5090170;28;19908;-79
2023/09/10 14:41:32;;;;;;;;;;;;;;;;;;5084515;28;19993;-79
2023/09/10 14:43:57;;;;;;;;;;;;;;;;;;5084442;28;19919;-79
2023/09/10 14:46:23;;;;;;;;;;;;;;;;;;5095975;28;20069;-79
2023/09/10 14:48:48;;;;;;;;;;;;;;;;;;5089644;28;19962;-79
2023/09/10 14:51:13;;;;;;;;;;;;;;;;;;5096175;28;19916;-79
2023/09/10 14:53:38;;;;;;;;;;;;;;;;;;5091694;28;20007;-79
2023/09/10 14:56:04;;;;;;;;;;;;;;;;;;5095215;28;19912;-79
2023/09/10 14:58:29;;;;;;;;;;;;;;;;;;5095335;28;19908;-79
2023/09/10 15:00:56;;;;;;;;;;;;;;;;;;5096386;28;19912;-79
2023/09/10 15:03:21;;;;;;;;;;;;;;;;;;5093588;28;19916;-79
2023/09/10 15:05:46;;;;;;;;;;;;;;;;;;5092039;28;19912;-79
2023/09/10 15:08:12;;;;;;;;;;;;;;;;;;5097500;28;20291;-79
2023/09/10 15:10:37;;;;;;;;;;;;;;;;;;5099624;28;19922;-79
2023/09/10 15:13:02;;;;;;;;;;;;;;;;;;5097797;28;19912;-79
2023/09/10 15:15:28;;;;;;;;;;;;;;;;;;5100386;28;19938;-80
2023/09/10 15:17:53;;;;;;;;;;;;;;;;;;5098987;28;19908;-79
2023/09/10 15:20:19;;;;;;;;;;;;;;;;;;5098624;28;19911;-79
2023/09/10 15:22:44;;;;;;;;;;;;;;;;;;5098025;28;20319;-79
2023/09/10 15:25:09;;;;;;;;;;;;;;;;;;5099399;28;19919;-80
2023/09/10 15:27:35;;;;;;;;;;;;;;;;;;5099760;28;20375;-79
2023/09/10 15:30:00;;;;;;;;;;;;;;;;;;5099262;28;19923;-79
2023/09/10 15:32:25;;;;;;;;;;;;;;;;;;5098575;28;19930;-78
2023/09/10 15:34:53;;;;;;;;;;;;;;;;;;5097840;28;20019;-79
2023/09/10 15:37:19;;;;;;;;;;;;;;;;;;5096109;28;19912;-78
2023/09/10 15:39:44;;;;;;;;;;;;;;;;;;5097141;28;20349;-78
2023/09/10 15:42:09;;;;;;;;;;;;;;;;;;5097433;28;20279;-79
2023/09/10 15:44:35;;;;;;;;;;;;;;;;;;5100874;28;19926;-80
2023/09/10 15:47:00;;;;;;;;;;;;;;;;;;5100553;28;20680;-79
2023/09/10 15:49:25;;;;;;;;;;;;;;;;;;5109467;28;19911;-79
2023/09/10 15:51:51;;;;;;;;;;;;;;;;;;5098282;28;19911;-79
2023/09/10 15:54:16;;;;;;;;;;;;;;;;;;5093650;28;19956;-79
2023/09/10 15:56:42;;;;;;;;;;;;;;;;;;5097352;28;19908;-78
2023/09/10 15:59:07;;;;;;;;;;;;;;;;;;5090969;28;19916;-78
2023/09/10 16:01:32;;;;;;;;;;;;;;;;;;5097878;28;19911;-79
2023/09/10 16:03:58;;;;;;;;;;;;;;;;;;5098598;28;19922;-79
2023/09/10 16:06:23;;;;;;;;;;;;;;;;;;5096608;28;19923;-79
2023/09/10 16:08:48;;;;;;;;;;;;;;;;;;5097496;28;19912;-79
2023/09/10 16:11:14;;;;;;;;;;;;;;;;;;5095766;28;19934;-78
2023/09/10 16:13:40;;;;;;;;;;;;;;;;;;5098210;28;19919;-78
2023/09/10 16:16:05;;;;;;;;;;;;;;;;;;5092715;28;20370;-79
2023/09/10 16:18:30;;;;;;;;;;;;;;;;;;5098223;28;19911;-79
2023/09/10 16:20:56;;;;;;;;;;;;;;;;;;5077596;28;20359;-79
2023/09/10 16:23:23;;;;;;;;;;;;;;;;;;5094572;28;19920;-79
2023/09/10 16:25:48;;;;;;;;;;;;;;;;;;5091207;28;19916;-79
2023/09/10 16:28:13;;;;;;;;;;;;;;;;;;5113321;28;20469;-79
2023/09/10 16:30:39;;;;;;;;;;;;;;;;;;5093844;28;20377;-80
2023/09/10 16:33:04;;;;;;;;;;;;;;;;;;5097811;28;19912;-79
2023/09/10 16:35:29;;;;;;;;;;;;;;;;;;5095180;28;19908;-79
2023/09/10 16:37:55;;;;;;;;;;;;;;;;;;5093578;28;19912;-79